createdAt,value
2023-04-02T00:02:23.427Z,99235.62
2023-04-02T00:05:54.852Z,99239.59
2023-04-02T00:09:12.923Z,99242.62
2023-04-02T00:12:25.588Z,99246.22
2023-04-02T00:15:45.443Z,99261.16
2023-04-02T00:19:00.515Z,99258.00
2023-04-02T00:22:21.225Z,99255.78
2023-04-02T00:25:36.702Z,99255.94
2023-04-02T00:28:50.837Z,99250.28
2023-04-02T00:32:03.499Z,99252.06
2023-04-02T00:35:21.463Z,99251.88
2023-04-02T00:38:34.152Z,99252.09
2023-04-02T00:41:49.283Z,99249.72
2023-04-02T00:45:02.093Z,99259.53
2023-04-02T00:48:34.257Z,99271.34
2023-04-02T00:51:50.377Z,99270.37
2023-04-02T00:55:06.983Z,99263.00
2023-04-02T00:58:25.773Z,99265.75
2023-04-02T01:01:42.697Z,99271.97
2023-04-02T01:05:02.893Z,99275.38
2023-04-02T01:08:50.656Z,99272.78
2023-04-02T01:12:12.612Z,99271.81
2023-04-02T01:15:27.538Z,99281.97
2023-04-02T01:19:18.363Z,99285.34
2023-04-02T01:23:00.363Z,99297.53
2023-04-02T01:26:41.835Z,99288.34
2023-04-02T01:29:56.757Z,99288.78
2023-04-02T01:33:09.567Z,99285.37
2023-04-02T01:36:54.540Z,99287.38
2023-04-02T01:40:20.365Z,99287.16
2023-04-02T01:43:37.446Z,99279.16
2023-04-02T01:46:50.374Z,99284.75
2023-04-02T01:50:20.200Z,99285.56
2023-04-02T01:53:33.378Z,99289.97
2023-04-02T01:56:47.276Z,99297.16
2023-04-02T02:00:01.807Z,99302.72
2023-04-02T02:03:14.654Z,99306.72
2023-04-02T02:06:27.540Z,99300.91
2023-04-02T02:09:39.938Z,99299.50
2023-04-02T02:12:52.638Z,99303.91
2023-04-02T02:16:06.738Z,99294.28
2023-04-02T02:19:29.792Z,99297.09
2023-04-02T02:22:46.907Z,99295.91
2023-04-02T02:25:59.596Z,99296.88
2023-04-02T02:29:12.004Z,99306.66
2023-04-02T02:32:27.707Z,99299.06
2023-04-02T02:35:50.958Z,99305.91
2023-04-02T02:39:20.468Z,99300.66
2023-04-02T02:42:37.024Z,99302.69
2023-04-02T02:45:49.821Z,99301.66
2023-04-02T02:49:02.418Z,99309.25
2023-04-02T02:52:17.404Z,99309.03
2023-04-02T02:55:34.870Z,99310.44
2023-04-02T02:58:49.075Z,99314.06
2023-04-02T03:02:02.011Z,99308.25
2023-04-02T03:05:20.591Z,99301.06
2023-04-02T03:09:04.463Z,99299.81
2023-04-02T03:12:29.823Z,99303.44
2023-04-02T03:15:42.665Z,99297.22
2023-04-02T03:19:02.573Z,99298.22
2023-04-02T03:22:17.006Z,99304.62
2023-04-02T03:25:48.988Z,99295.41
2023-04-02T03:29:19.417Z,99297.44
2023-04-02T03:32:37.613Z,99302.66
2023-04-02T03:36:06.310Z,99302.03
2023-04-02T03:39:37.506Z,99306.25
2023-04-02T03:42:56.088Z,99303.66
2023-04-02T03:46:33.140Z,99300.25
2023-04-02T03:50:08.808Z,99308.84
2023-04-02T03:53:25.685Z,99308.25
2023-04-02T03:56:41.470Z,99308.69
2023-04-02T04:00:10.601Z,99319.06
2023-04-02T04:03:32.953Z,99312.91
2023-04-02T04:06:46.684Z,99321.91
2023-04-02T04:09:59.097Z,99314.50
2023-04-02T04:13:14.165Z,99315.28
2023-04-02T04:16:32.496Z,99319.09
2023-04-02T04:19:55.525Z,99331.91
2023-04-02T04:23:25.888Z,99328.31
2023-04-02T04:26:42.857Z,99338.72
2023-04-02T04:30:03.954Z,99338.13
2023-04-02T04:33:25.826Z,99338.72
2023-04-02T04:36:54.327Z,99341.12
2023-04-02T04:40:17.475Z,99345.94
2023-04-02T04:43:42.197Z,99347.13
2023-04-02T04:46:59.656Z,99359.09
2023-04-02T04:50:23.033Z,99359.50
2023-04-02T04:53:41.097Z,99365.09
2023-04-02T04:56:56.388Z,99355.09
2023-04-02T05:00:16.687Z,99355.50
2023-04-02T05:03:35.811Z,99357.09
2023-04-02T05:07:09.320Z,99359.88
2023-04-02T05:10:44.516Z,99356.69
2023-04-02T05:14:04.134Z,99357.91
2023-04-02T05:17:21.495Z,99363.28
2023-04-02T05:20:42.692Z,99364.09
2023-04-02T05:24:00.302Z,99363.09
2023-04-02T05:27:20.149Z,99365.12
2023-04-02T05:30:57.099Z,99375.91
2023-04-02T05:34:11.187Z,99377.69
2023-04-02T05:37:25.836Z,99376.69
2023-04-02T05:40:41.124Z,99386.28
2023-04-02T05:44:24.603Z,99386.88
2023-04-02T05:47:41.146Z,99385.81
2023-04-02T05:50:56.003Z,99397.81
2023-04-02T05:54:23.427Z,99394.19
2023-04-02T05:58:13.491Z,99407.37
2023-04-02T06:01:30.238Z,99407.53
2023-04-02T06:04:50.705Z,99407.69
2023-04-02T06:08:15.080Z,99402.66
2023-04-02T06:11:32.268Z,99400.00
2023-04-02T06:14:46.107Z,99402.75
2023-04-02T06:18:06.749Z,99404.16
2023-04-02T06:21:19.530Z,99414.31
2023-04-02T06:24:34.049Z,99421.03
2023-04-02T06:27:49.375Z,99411.16
2023-04-02T06:31:08.439Z,99414.72
2023-04-02T06:34:22.931Z,99418.12
2023-04-02T06:37:37.796Z,99419.31
2023-04-02T06:40:59.091Z,99421.56
2023-04-02T06:44:15.986Z,99424.31
2023-04-02T06:47:45.860Z,99430.75
2023-04-02T06:51:07.535Z,99429.81
2023-04-02T06:54:21.065Z,99428.94
2023-04-02T06:57:35.842Z,99428.87
2023-04-02T07:00:49.118Z,99425.88
2023-04-02T07:04:03.033Z,99436.87
2023-04-02T07:07:16.582Z,99442.69
2023-04-02T07:10:30.042Z,99441.97
2023-04-02T07:13:43.969Z,99439.94
2023-04-02T07:16:57.120Z,99447.06
2023-04-02T07:20:30.482Z,99453.78
2023-04-02T07:23:44.438Z,99451.94
2023-04-02T07:26:56.744Z,99448.06
2023-04-02T07:30:09.780Z,99452.69
2023-04-02T07:33:24.355Z,99453.09
2023-04-02T07:36:37.034Z,99458.72
2023-04-02T07:39:49.395Z,99455.91
2023-04-02T07:43:02.159Z,99463.44
2023-04-02T07:46:16.780Z,99460.34
2023-04-02T07:49:29.529Z,99461.66
2023-04-02T07:52:44.914Z,99468.28
2023-04-02T07:55:58.895Z,99469.41
2023-04-02T07:59:11.347Z,99471.81
2023-04-02T08:02:24.097Z,99471.66
2023-04-02T08:05:37.306Z,99469.06
2023-04-02T08:08:50.407Z,99470.84
2023-04-02T08:12:03.062Z,99481.72
2023-04-02T08:15:16.124Z,99473.41
2023-04-02T08:18:29.551Z,99483.53
2023-04-02T08:21:41.876Z,99478.19
2023-04-02T08:24:54.785Z,99475.56
2023-04-02T08:28:07.147Z,99484.16
2023-04-02T08:31:19.788Z,99482.53
2023-04-02T08:34:32.177Z,99488.84
2023-04-02T08:37:44.828Z,99482.87
2023-04-02T08:40:57.744Z,99489.38
2023-04-02T08:44:16.438Z,99492.91
2023-04-02T08:47:30.539Z,99491.00
2023-04-02T08:50:43.500Z,99490.19
2023-04-02T08:54:04.208Z,99493.22
2023-04-02T08:57:33.230Z,99496.31
2023-04-02T09:00:45.779Z,99497.50
2023-04-02T09:03:58.729Z,99487.72
2023-04-02T09:07:14.400Z,99505.94
2023-04-02T09:10:35.983Z,99507.22
2023-04-02T09:13:51.437Z,99507.88
2023-04-02T09:17:04.257Z,99509.53
2023-04-02T09:20:19.434Z,99513.50
2023-04-02T09:23:31.998Z,99522.97
2023-04-02T09:26:44.421Z,99510.94
2023-04-02T09:30:04.765Z,99509.41
2023-04-02T09:33:17.195Z,99510.88
2023-04-02T09:36:37.801Z,99520.34
2023-04-02T09:39:50.371Z,99511.00
2023-04-02T09:43:04.113Z,99530.84
2023-04-02T09:46:26.161Z,99530.69
2023-04-02T09:49:39.401Z,99522.03
2023-04-02T09:52:51.845Z,99534.84
2023-04-02T09:56:12.056Z,99528.47
2023-04-02T09:59:24.440Z,99526.06
2023-04-02T10:02:37.248Z,99528.63
2023-04-02T10:05:50.070Z,99527.03
2023-04-02T10:09:27.676Z,99531.22
2023-04-02T10:12:41.219Z,99520.87
2023-04-02T10:16:09.348Z,99534.00
2023-04-02T10:19:52.616Z,99533.09
2023-04-02T10:23:06.486Z,99526.22
2023-04-02T10:26:41.333Z,99513.87
2023-04-02T10:30:19.184Z,99513.75
2023-04-02T10:33:34.564Z,99509.81
2023-04-02T10:36:55.362Z,99510.91
2023-04-02T10:40:12.401Z,99512.87
2023-04-02T10:43:43.406Z,99511.16
2023-04-02T10:47:14.437Z,99508.72
2023-04-02T10:50:41.800Z,99512.94
2023-04-02T10:54:12.680Z,99506.94
2023-04-02T10:57:40.614Z,99512.28
2023-04-02T11:01:17.048Z,99513.56
2023-04-02T11:04:33.259Z,99500.84
2023-04-02T11:07:57.510Z,99508.59
2023-04-02T11:11:16.864Z,99510.12
2023-04-02T11:14:31.008Z,99507.84
2023-04-02T11:17:44.571Z,99507.72
2023-04-02T11:20:59.200Z,99514.47
2023-04-02T11:24:32.927Z,99498.91
2023-04-02T11:27:45.719Z,99492.06
2023-04-02T11:30:58.156Z,99489.78
2023-04-02T11:34:42.150Z,99495.50
2023-04-02T11:37:56.201Z,99500.66
2023-04-02T11:41:08.800Z,99500.53
2023-04-02T11:44:24.330Z,99514.13
2023-04-02T11:47:37.063Z,99506.44
2023-04-02T11:50:49.466Z,99507.66
2023-04-02T11:54:02.176Z,99507.19
2023-04-02T11:57:52.355Z,99503.38
2023-04-02T12:01:36.385Z,99518.06
2023-04-02T12:04:58.188Z,99503.06
2023-04-02T12:08:50.721Z,99503.91
2023-04-02T12:12:26.407Z,99505.87
2023-04-02T12:15:46.244Z,99502.06
2023-04-02T12:18:58.871Z,99487.66
2023-04-02T12:22:20.295Z,99494.25
2023-04-02T12:25:34.187Z,99497.50
2023-04-02T12:28:46.525Z,99496.75
2023-04-02T12:31:59.285Z,99489.97
2023-04-02T12:35:33.385Z,99490.34
2023-04-02T12:38:56.463Z,99475.31
2023-04-02T12:42:27.708Z,99479.94
2023-04-02T12:45:40.511Z,99483.28
2023-04-02T12:48:54.387Z,99485.00
2023-04-02T12:52:11.772Z,99482.84
2023-04-02T12:55:24.449Z,99479.88
2023-04-02T12:58:37.843Z,99478.50
2023-04-02T13:01:57.860Z,99469.72
2023-04-02T13:05:11.416Z,99472.38
2023-04-02T13:08:27.275Z,99470.56
2023-04-02T13:11:41.111Z,99469.53
2023-04-02T13:14:57.199Z,99469.75
2023-04-02T13:18:12.476Z,99467.81
2023-04-02T13:21:28.563Z,99467.09
2023-04-02T13:24:42.130Z,99463.72
2023-04-02T13:27:54.717Z,99472.19
2023-04-02T13:31:15.173Z,99481.03
2023-04-02T13:34:27.596Z,99471.91
2023-04-02T13:37:40.741Z,99478.34
2023-04-02T13:40:53.178Z,99478.19
2023-04-02T13:44:05.933Z,99474.59
2023-04-02T13:47:18.267Z,99478.53
2023-04-02T13:50:34.394Z,99475.84
2023-04-02T13:53:54.717Z,99488.53
2023-04-02T13:57:07.593Z,99469.00
2023-04-02T14:00:20.606Z,99479.00
2023-04-02T14:03:33.242Z,99468.47
2023-04-02T14:07:04.169Z,99483.53
2023-04-02T14:10:29.855Z,99472.22
2023-04-02T14:13:48.662Z,99476.19
2023-04-02T14:17:20.084Z,99478.09
2023-04-02T14:20:58.481Z,99482.50
2023-04-02T14:24:22.849Z,99489.16
2023-04-02T14:27:45.221Z,99475.13
2023-04-02T14:31:02.835Z,99479.31
2023-04-02T14:34:22.162Z,99473.53
2023-04-02T14:37:52.680Z,99475.31
2023-04-02T14:41:08.865Z,99473.88
2023-04-02T14:44:23.600Z,99471.81
2023-04-02T14:47:45.678Z,99477.78
2023-04-02T14:51:07.503Z,99480.91
2023-04-02T14:54:50.168Z,99482.50
2023-04-02T14:58:04.694Z,99486.38
2023-04-02T15:01:28.151Z,99487.38
2023-04-02T15:04:42.356Z,99499.19
2023-04-02T15:08:05.677Z,99507.84
2023-04-02T15:11:26.086Z,99512.59
2023-04-02T15:14:44.486Z,99535.47
2023-04-02T15:17:58.470Z,99555.59
2023-04-02T15:21:19.902Z,99567.16
2023-04-02T15:24:51.241Z,99572.31
2023-04-02T15:28:35.714Z,99580.81
2023-04-02T15:31:48.394Z,99591.03
2023-04-02T15:35:16.181Z,99601.25
2023-04-02T15:38:41.006Z,99614.38
2023-04-02T15:42:15.714Z,99611.66
2023-04-02T15:46:09.975Z,99623.50
2023-04-02T15:49:31.370Z,99614.16
2023-04-02T15:52:58.884Z,99622.59
2023-04-02T15:56:17.340Z,99617.78
2023-04-02T16:00:04.213Z,99612.63
2023-04-02T16:03:42.522Z,99621.09
2023-04-02T16:07:24.319Z,99618.97
2023-04-02T16:10:42.608Z,99631.25
2023-04-02T16:14:05.142Z,99628.28
2023-04-02T16:17:40.961Z,99636.31
2023-04-02T16:20:53.596Z,99643.94
2023-04-02T16:24:11.522Z,99643.37
2023-04-02T16:27:43.104Z,99648.78
2023-04-02T16:30:59.853Z,99652.88
2023-04-02T16:34:21.512Z,99647.62
2023-04-02T16:37:38.306Z,99652.72
2023-04-02T16:41:06.723Z,99654.19
2023-04-02T16:44:42.162Z,99655.06
2023-04-02T16:48:05.671Z,99669.44
2023-04-02T16:51:33.324Z,99682.50
2023-04-02T16:55:11.362Z,99683.25
2023-04-02T16:58:40.515Z,99691.81
2023-04-02T17:02:11.208Z,99688.00
2023-04-02T17:05:36.078Z,99691.00
2023-04-02T17:08:56.938Z,99690.13
2023-04-02T17:12:10.602Z,99683.97
2023-04-02T17:15:28.154Z,99687.44
2023-04-02T17:18:41.735Z,99692.97
2023-04-02T17:21:58.355Z,99686.94
2023-04-02T17:25:17.943Z,99683.66
2023-04-02T17:28:36.706Z,99680.56
2023-04-02T17:31:49.187Z,99685.84
2023-04-02T17:35:28.033Z,99683.38
2023-04-02T17:39:35.769Z,99695.06
2023-04-02T17:43:16.427Z,99695.25
2023-04-02T17:46:37.797Z,99698.50
2023-04-02T17:50:12.215Z,99716.31
2023-04-02T17:53:27.414Z,99718.06
2023-04-02T17:56:52.081Z,99723.69
2023-04-02T18:00:13.259Z,99728.50
2023-04-02T18:03:35.669Z,99737.84
2023-04-02T18:06:50.733Z,99738.72
2023-04-02T18:10:31.064Z,99751.75
2023-04-02T18:14:12.516Z,99750.56
2023-04-02T18:17:51.483Z,99758.22
2023-04-02T18:21:28.147Z,99766.09
2023-04-02T18:25:08.656Z,99776.53
2023-04-02T18:28:51.108Z,99778.94
2023-04-02T18:32:12.980Z,99797.63
2023-04-02T18:35:25.216Z,99796.22
2023-04-02T18:38:47.832Z,99791.81
2023-04-02T18:42:23.420Z,99798.44
2023-04-02T18:45:42.624Z,99813.44
2023-04-02T18:49:18.341Z,99809.03
2023-04-02T18:52:31.197Z,99810.22
2023-04-02T18:55:47.786Z,99804.97
2023-04-02T18:59:14.743Z,99813.38
2023-04-02T19:02:33.035Z,99815.94
2023-04-02T19:06:11.647Z,99820.53
2023-04-02T19:09:30.974Z,99824.94
2023-04-02T19:12:43.603Z,99844.19
2023-04-02T19:16:04.400Z,99844.00
2023-04-02T19:19:21.289Z,99846.69
2023-04-02T19:23:14.215Z,99852.09
2023-04-02T19:26:30.598Z,99858.09
2023-04-02T19:29:55.860Z,99859.13
2023-04-02T19:33:12.484Z,99865.56
2023-04-02T19:36:47.921Z,99865.94
2023-04-02T19:40:10.968Z,99871.97
2023-04-02T19:43:23.253Z,99875.19
2023-04-02T19:46:35.946Z,99887.97
2023-04-02T19:49:48.293Z,99889.00
2023-04-02T19:53:00.929Z,99894.34
2023-04-02T19:56:13.311Z,99894.97
2023-04-02T19:59:26.200Z,99901.31
2023-04-02T20:02:38.554Z,99911.25
2023-04-02T20:05:51.197Z,99911.06
2023-04-02T20:09:03.610Z,99921.38
2023-04-02T20:12:16.199Z,99923.69
2023-04-02T20:15:28.625Z,99922.16
2023-04-02T20:18:41.262Z,99926.16
2023-04-02T20:21:53.594Z,99924.97
2023-04-02T20:25:06.659Z,99935.41
2023-04-02T20:28:20.235Z,99936.22
2023-04-02T20:31:32.996Z,99939.59
2023-04-02T20:34:45.410Z,99945.03
2023-04-02T20:37:58.038Z,99945.44
2023-04-02T20:41:10.427Z,99951.88
2023-04-02T20:44:23.059Z,99957.09
2023-04-02T20:47:35.448Z,99967.28
2023-04-02T20:50:49.160Z,99967.47
2023-04-02T20:54:01.824Z,99965.88
2023-04-02T20:57:14.494Z,99977.09
2023-04-02T21:00:27.236Z,99973.50
2023-04-02T21:03:40.188Z,99977.94
2023-04-02T21:06:57.031Z,99986.34
2023-04-02T21:10:09.912Z,99986.31
2023-04-02T21:13:22.161Z,99991.94
2023-04-02T21:16:36.313Z,99997.94
2023-04-02T21:19:48.744Z,99993.91
2023-04-02T21:23:01.348Z,99997.06
2023-04-02T21:26:15.791Z,100004.28
2023-04-02T21:29:28.462Z,100009.50
2023-04-02T21:32:41.031Z,100023.13
2023-04-02T21:35:54.198Z,100025.53
2023-04-02T21:39:11.510Z,100028.31
2023-04-02T21:42:24.298Z,100027.94
2023-04-02T21:45:36.887Z,100033.22
2023-04-02T21:48:51.814Z,100044.75
2023-04-02T21:52:04.198Z,100048.69
2023-04-02T21:55:16.900Z,100056.09
2023-04-02T21:58:29.276Z,100054.28
2023-04-02T22:01:43.797Z,100059.19
2023-04-02T22:04:56.544Z,100063.03
2023-04-02T22:08:08.871Z,100077.31
2023-04-02T22:11:23.745Z,100073.53
2023-04-02T22:14:36.093Z,100072.50
2023-04-02T22:17:48.749Z,100065.69
2023-04-02T22:21:01.692Z,100070.78
2023-04-02T22:24:15.558Z,100068.00
2023-04-02T22:27:27.876Z,100071.91
2023-04-02T22:30:41.575Z,100068.97
2023-04-02T22:33:54.523Z,100082.38
2023-04-02T22:37:07.179Z,100088.16
2023-04-02T22:40:19.492Z,100093.50
2023-04-02T22:43:32.223Z,100090.53
2023-04-02T22:46:44.801Z,100094.19
2023-04-02T22:49:57.478Z,100103.66
2023-04-02T22:53:11.970Z,100099.19
2023-04-02T22:56:28.559Z,100103.75
2023-04-02T22:59:41.176Z,100115.06
2023-04-02T23:02:53.975Z,100112.94
2023-04-02T23:06:11.606Z,100111.25
2023-04-02T23:09:24.244Z,100120.81
2023-04-02T23:12:36.584Z,100121.72
2023-04-02T23:15:49.253Z,100128.00
2023-04-02T23:19:01.612Z,100125.81
2023-04-02T23:22:14.316Z,100127.25
2023-04-02T23:25:26.675Z,100139.25
2023-04-02T23:28:39.679Z,100139.41
2023-04-02T23:31:52.074Z,100138.53
2023-04-02T23:35:06.470Z,100141.59
2023-04-02T23:38:18.829Z,100141.41
2023-04-02T23:41:31.534Z,100147.34
2023-04-02T23:44:43.846Z,100145.19
2023-04-02T23:47:56.529Z,100155.59
2023-04-02T23:51:08.969Z,100151.53
2023-04-02T23:54:21.559Z,100149.44
2023-04-02T23:57:33.992Z,100162.47
